sensor_id;sensor_type;location;lat;lon;timestamp;P1;durP1;ratioP1;P2;durP2;ratioP2
23826;SDS011;12094;50.822;4.376;2022-12-18T00:01:37;64.60;;;28.08;;
23826;SDS011;12094;50.822;4.376;2022-12-18T00:04:06;60.80;;;27.23;;
23826;SDS011;12094;50.822;4.376;2022-12-18T00:06:50;65.30;;;28.63;;
23826;SDS011;12094;50.822;4.376;2022-12-18T00:09:19;64.15;;;29.00;;
23826;SDS011;12094;50.822;4.376;2022-12-18T00:11:49;61.53;;;28.70;;
23826;SDS011;12094;50.822;4.376;2022-12-18T00:14:18;60.25;;;26.50;;
23826;SDS011;12094;50.822;4.376;2022-12-18T00:16:46;62.10;;;26.83;;
23826;SDS011;12094;50.822;4.376;2022-12-18T00:19:15;59.72;;;26.10;;
23826;SDS011;12094;50.822;4.376;2022-12-18T00:21:45;57.72;;;25.95;;
23826;SDS011;12094;50.822;4.376;2022-12-18T00:24:13;55.70;;;26.52;;
23826;SDS011;12094;50.822;4.376;2022-12-18T00:26:40;60.42;;;24.77;;
23826;SDS011;12094;50.822;4.376;2022-12-18T00:29:09;59.30;;;26.02;;
23826;SDS011;12094;50.822;4.376;2022-12-18T00:31:46;54.55;;;25.23;;
23826;SDS011;12094;50.822;4.376;2022-12-18T00:34:16;59.75;;;25.27;;
23826;SDS011;12094;50.822;4.376;2022-12-18T00:36:46;56.55;;;24.50;;
23826;SDS011;12094;50.822;4.376;2022-12-18T00:39:14;54.67;;;24.15;;
23826;SDS011;12094;50.822;4.376;2022-12-18T00:41:46;59.88;;;25.77;;
23826;SDS011;12094;50.822;4.376;2022-12-18T00:47:08;54.03;;;24.17;;
23826;SDS011;12094;50.822;4.376;2022-12-18T00:55:30;48.80;;;21.52;;
23826;SDS011;12094;50.822;4.376;2022-12-18T00:57:59;55.50;;;21.05;;
23826;SDS011;12094;50.822;4.376;2022-12-18T01:02:59;47.30;;;20.45;;
23826;SDS011;12094;50.822;4.376;2022-12-18T01:05:26;45.78;;;20.27;;
23826;SDS011;12094;50.822;4.376;2022-12-18T01:07:54;39.20;;;18.80;;
23826;SDS011;12094;50.822;4.376;2022-12-18T01:10:22;38.42;;;19.60;;
23826;SDS011;12094;50.822;4.376;2022-12-18T01:12:53;38.55;;;18.17;;
23826;SDS011;12094;50.822;4.376;2022-12-18T01:15:22;39.70;;;18.52;;
23826;SDS011;12094;50.822;4.376;2022-12-18T01:17:52;42.53;;;18.15;;
23826;SDS011;12094;50.822;4.376;2022-12-18T01:20:21;38.97;;;18.85;;
23826;SDS011;12094;50.822;4.376;2022-12-18T01:22:50;37.50;;;17.67;;
23826;SDS011;12094;50.822;4.376;2022-12-18T01:25:19;37.38;;;18.05;;
23826;SDS011;12094;50.822;4.376;2022-12-18T01:27:50;34.75;;;17.40;;
23826;SDS011;12094;50.822;4.376;2022-12-18T01:30:20;36.00;;;18.05;;
23826;SDS011;12094;50.822;4.376;2022-12-18T01:32:48;35.47;;;16.55;;
23826;SDS011;12094;50.822;4.376;2022-12-18T01:35:16;37.58;;;17.00;;
23826;SDS011;12094;50.822;4.376;2022-12-18T01:41:16;41.47;;;16.60;;
23826;SDS011;12094;50.822;4.376;2022-12-18T01:46:21;34.35;;;16.60;;
23826;SDS011;12094;50.822;4.376;2022-12-18T01:48:51;37.70;;;17.08;;
23826;SDS011;12094;50.822;4.376;2022-12-18T01:51:27;35.92;;;17.08;;
23826;SDS011;12094;50.822;4.376;2022-12-18T01:53:56;36.08;;;17.42;;
23826;SDS011;12094;50.822;4.376;2022-12-18T01:56:25;33.22;;;16.42;;
23826;SDS011;12094;50.822;4.376;2022-12-18T01:59:03;36.67;;;17.25;;
23826;SDS011;12094;50.822;4.376;2022-12-18T02:01:34;38.28;;;16.38;;
23826;SDS011;12094;50.822;4.376;2022-12-18T02:04:18;38.28;;;17.63;;
23826;SDS011;12094;50.822;4.376;2022-12-18T02:17:38;34.03;;;15.57;;
23826;SDS011;12094;50.822;4.376;2022-12-18T02:20:16;37.15;;;15.70;;
23826;SDS011;12094;50.822;4.376;2022-12-18T02:26:01;34.55;;;15.65;;
23826;SDS011;12094;50.822;4.376;2022-12-18T02:28:58;33.65;;;15.38;;
23826;SDS011;12094;50.822;4.376;2022-12-18T02:34:12;33.53;;;15.48;;
23826;SDS011;12094;50.822;4.376;2022-12-18T02:36:44;33.55;;;15.40;;
23826;SDS011;12094;50.822;4.376;2022-12-18T02:41:57;35.55;;;14.82;;
23826;SDS011;12094;50.822;4.376;2022-12-18T02:44:27;28.27;;;13.87;;
23826;SDS011;12094;50.822;4.376;2022-12-18T02:46:56;36.00;;;16.13;;
23826;SDS011;12094;50.822;4.376;2022-12-18T02:52:43;32.47;;;15.63;;
23826;SDS011;12094;50.822;4.376;2022-12-18T02:55:19;33.38;;;15.27;;
23826;SDS011;12094;50.822;4.376;2022-12-18T03:01:09;34.90;;;15.90;;
23826;SDS011;12094;50.822;4.376;2022-12-18T03:04:01;35.08;;;15.38;;
23826;SDS011;12094;50.822;4.376;2022-12-18T03:06:37;36.30;;;14.98;;
23826;SDS011;12094;50.822;4.376;2022-12-18T03:09:13;34.30;;;14.85;;
23826;SDS011;12094;50.822;4.376;2022-12-18T03:11:53;34.03;;;15.60;;
23826;SDS011;12094;50.822;4.376;2022-12-18T03:14:49;36.03;;;15.77;;
23826;SDS011;12094;50.822;4.376;2022-12-18T03:17:29;31.88;;;14.50;;
23826;SDS011;12094;50.822;4.376;2022-12-18T03:20:03;29.13;;;14.38;;
23826;SDS011;12094;50.822;4.376;2022-12-18T03:22:36;31.00;;;14.48;;
23826;SDS011;12094;50.822;4.376;2022-12-18T03:27:55;31.48;;;13.70;;
23826;SDS011;12094;50.822;4.376;2022-12-18T03:30:31;28.75;;;12.57;;
23826;SDS011;12094;50.822;4.376;2022-12-18T03:35:59;31.98;;;13.98;;
23826;SDS011;12094;50.822;4.376;2022-12-18T03:38:28;29.45;;;13.50;;
23826;SDS011;12094;50.822;4.376;2022-12-18T03:47:16;29.05;;;13.30;;
23826;SDS011;12094;50.822;4.376;2022-12-18T03:50:16;25.98;;;11.82;;
23826;SDS011;12094;50.822;4.376;2022-12-18T03:55:21;28.77;;;13.00;;
23826;SDS011;12094;50.822;4.376;2022-12-18T03:57:58;27.60;;;12.30;;
23826;SDS011;12094;50.822;4.376;2022-12-18T04:00:39;25.55;;;12.02;;
23826;SDS011;12094;50.822;4.376;2022-12-18T04:05:46;25.42;;;11.85;;
23826;SDS011;12094;50.822;4.376;2022-12-18T04:08:18;26.15;;;11.27;;
23826;SDS011;12094;50.822;4.376;2022-12-18T04:10:57;21.88;;;11.45;;
23826;SDS011;12094;50.822;4.376;2022-12-18T04:13:30;26.00;;;11.35;;
23826;SDS011;12094;50.822;4.376;2022-12-18T04:16:04;26.15;;;11.32;;
23826;SDS011;12094;50.822;4.376;2022-12-18T04:18:34;26.77;;;12.55;;
23826;SDS011;12094;50.822;4.376;2022-12-18T04:21:03;26.52;;;11.95;;
23826;SDS011;12094;50.822;4.376;2022-12-18T04:23:37;24.63;;;11.68;;
23826;SDS011;12094;50.822;4.376;2022-12-18T04:26:07;35.40;;;18.38;;
23826;SDS011;12094;50.822;4.376;2022-12-18T04:28:50;29.00;;;12.10;;
23826;SDS011;12094;50.822;4.376;2022-12-18T04:31:18;31.52;;;12.68;;
23826;SDS011;12094;50.822;4.376;2022-12-18T04:33:46;25.50;;;11.93;;
23826;SDS011;12094;50.822;4.376;2022-12-18T04:36:15;30.75;;;12.32;;
23826;SDS011;12094;50.822;4.376;2022-12-18T04:38:45;26.10;;;12.75;;
23826;SDS011;12094;50.822;4.376;2022-12-18T04:41:17;25.70;;;12.15;;
23826;SDS011;12094;50.822;4.376;2022-12-18T04:43:46;18.80;;;9.15;;
23826;SDS011;12094;50.822;4.376;2022-12-18T04:46:13;28.70;;;12.85;;
23826;SDS011;12094;50.822;4.376;2022-12-18T04:48:44;30.50;;;13.30;;
23826;SDS011;12094;50.822;4.376;2022-12-18T04:51:16;29.35;;;12.35;;
23826;SDS011;12094;50.822;4.376;2022-12-18T04:53:55;28.60;;;12.73;;
23826;SDS011;12094;50.822;4.376;2022-12-18T04:56:37;29.02;;;13.13;;
23826;SDS011;12094;50.822;4.376;2022-12-18T04:59:04;27.00;;;12.88;;
23826;SDS011;12094;50.822;4.376;2022-12-18T05:04:04;28.33;;;12.30;;
23826;SDS011;12094;50.822;4.376;2022-12-18T05:06:33;25.95;;;12.30;;
23826;SDS011;12094;50.822;4.376;2022-12-18T05:09:01;26.42;;;12.27;;
23826;SDS011;12094;50.822;4.376;2022-12-18T05:11:29;28.40;;;12.95;;
23826;SDS011;12094;50.822;4.376;2022-12-18T05:13:57;27.42;;;11.70;;
23826;SDS011;12094;50.822;4.376;2022-12-18T05:16:24;30.60;;;12.25;;
23826;SDS011;12094;50.822;4.376;2022-12-18T05:18:55;26.63;;;12.30;;
23826;SDS011;12094;50.822;4.376;2022-12-18T05:21:23;22.15;;;11.07;;
23826;SDS011;12094;50.822;4.376;2022-12-18T05:23:53;23.13;;;10.82;;
23826;SDS011;12094;50.822;4.376;2022-12-18T05:26:20;25.85;;;11.98;;
23826;SDS011;12094;50.822;4.376;2022-12-18T05:28:47;25.63;;;10.85;;
23826;SDS011;12094;50.822;4.376;2022-12-18T05:31:20;22.33;;;10.38;;
23826;SDS011;12094;50.822;4.376;2022-12-18T05:33:48;26.27;;;10.85;;
23826;SDS011;12094;50.822;4.376;2022-12-18T05:36:19;26.27;;;10.80;;
23826;SDS011;12094;50.822;4.376;2022-12-18T05:38:48;29.85;;;12.80;;
23826;SDS011;12094;50.822;4.376;2022-12-18T05:41:16;22.90;;;10.98;;
23826;SDS011;12094;50.822;4.376;2022-12-18T05:43:43;23.40;;;10.57;;
23826;SDS011;12094;50.822;4.376;2022-12-18T05:46:12;24.02;;;11.15;;
23826;SDS011;12094;50.822;4.376;2022-12-18T05:48:42;25.05;;;10.35;;
23826;SDS011;12094;50.822;4.376;2022-12-18T05:51:13;23.70;;;10.00;;
23826;SDS011;12094;50.822;4.376;2022-12-18T05:53:45;22.77;;;10.23;;
23826;SDS011;12094;50.822;4.376;2022-12-18T05:56:16;22.27;;;11.13;;
23826;SDS011;12094;50.822;4.376;2022-12-18T05:58:47;25.67;;;10.73;;
23826;SDS011;12094;50.822;4.376;2022-12-18T06:01:19;25.77;;;11.02;;
23826;SDS011;12094;50.822;4.376;2022-12-18T06:03:54;21.92;;;11.23;;
23826;SDS011;12094;50.822;4.376;2022-12-18T06:06:23;25.95;;;11.50;;
23826;SDS011;12094;50.822;4.376;2022-12-18T06:08:53;21.60;;;10.68;;
23826;SDS011;12094;50.822;4.376;2022-12-18T06:11:22;19.95;;;9.75;;
23826;SDS011;12094;50.822;4.376;2022-12-18T06:13:55;22.75;;;10.93;;
23826;SDS011;12094;50.822;4.376;2022-12-18T06:16:39;22.23;;;9.82;;
23826;SDS011;12094;50.822;4.376;2022-12-18T06:19:07;22.05;;;9.57;;
23826;SDS011;12094;50.822;4.376;2022-12-18T06:21:34;25.27;;;10.10;;
23826;SDS011;12094;50.822;4.376;2022-12-18T06:24:02;19.55;;;9.27;;
23826;SDS011;12094;50.822;4.376;2022-12-18T06:26:30;16.65;;;8.43;;
23826;SDS011;12094;50.822;4.376;2022-12-18T06:29:00;19.00;;;8.40;;
23826;SDS011;12094;50.822;4.376;2022-12-18T06:31:28;20.58;;;9.20;;
23826;SDS011;12094;50.822;4.376;2022-12-18T06:33:56;17.92;;;8.35;;
23826;SDS011;12094;50.822;4.376;2022-12-18T06:36:24;21.00;;;8.85;;
23826;SDS011;12094;50.822;4.376;2022-12-18T06:38:54;19.15;;;9.10;;
23826;SDS011;12094;50.822;4.376;2022-12-18T06:41:24;21.80;;;9.55;;
23826;SDS011;12094;50.822;4.376;2022-12-18T06:43:52;18.30;;;8.88;;
23826;SDS011;12094;50.822;4.376;2022-12-18T06:46:25;24.10;;;9.38;;
23826;SDS011;12094;50.822;4.376;2022-12-18T06:48:57;18.23;;;8.77;;
23826;SDS011;12094;50.822;4.376;2022-12-18T06:51:27;19.73;;;9.13;;
23826;SDS011;12094;50.822;4.376;2022-12-18T06:53:54;19.95;;;9.80;;
23826;SDS011;12094;50.822;4.376;2022-12-18T07:01:24;21.17;;;9.45;;
23826;SDS011;12094;50.822;4.376;2022-12-18T07:03:54;17.92;;;8.93;;
23826;SDS011;12094;50.822;4.376;2022-12-18T07:06:23;15.50;;;7.30;;
23826;SDS011;12094;50.822;4.376;2022-12-18T07:08:53;21.85;;;9.40;;
23826;SDS011;12094;50.822;4.376;2022-12-18T07:11:23;17.58;;;9.32;;
23826;SDS011;12094;50.822;4.376;2022-12-18T07:13:57;18.92;;;9.25;;
23826;SDS011;12094;50.822;4.376;2022-12-18T07:16:24;19.80;;;8.75;;
23826;SDS011;12094;50.822;4.376;2022-12-18T07:18:55;20.52;;;8.73;;
23826;SDS011;12094;50.822;4.376;2022-12-18T07:21:23;17.67;;;8.70;;
23826;SDS011;12094;50.822;4.376;2022-12-18T07:23:51;17.83;;;9.10;;
23826;SDS011;12094;50.822;4.376;2022-12-18T07:30:37;19.08;;;8.70;;
23826;SDS011;12094;50.822;4.376;2022-12-18T07:33:08;19.95;;;9.27;;
23826;SDS011;12094;50.822;4.376;2022-12-18T07:35:36;20.63;;;9.10;;
23826;SDS011;12094;50.822;4.376;2022-12-18T07:40:33;19.20;;;8.85;;
23826;SDS011;12094;50.822;4.376;2022-12-18T07:43:01;19.58;;;8.80;;
23826;SDS011;12094;50.822;4.376;2022-12-18T07:45:32;17.48;;;9.18;;
23826;SDS011;12094;50.822;4.376;2022-12-18T07:48:00;19.15;;;9.00;;
23826;SDS011;12094;50.822;4.376;2022-12-18T07:50:32;24.23;;;9.38;;
23826;SDS011;12094;50.822;4.376;2022-12-18T07:53:00;18.90;;;9.45;;
23826;SDS011;12094;50.822;4.376;2022-12-18T07:55:31;19.33;;;9.07;;
23826;SDS011;12094;50.822;4.376;2022-12-18T07:58:18;16.63;;;8.98;;
23826;SDS011;12094;50.822;4.376;2022-12-18T08:00:46;17.42;;;9.40;;
23826;SDS011;12094;50.822;4.376;2022-12-18T08:03:15;16.67;;;8.82;;
23826;SDS011;12094;50.822;4.376;2022-12-18T08:05:42;16.92;;;8.52;;
23826;SDS011;12094;50.822;4.376;2022-12-18T08:08:09;19.63;;;8.82;;
23826;SDS011;12094;50.822;4.376;2022-12-18T08:10:37;17.27;;;9.00;;
23826;SDS011;12094;50.822;4.376;2022-12-18T08:13:05;18.13;;;8.82;;
23826;SDS011;12094;50.822;4.376;2022-12-18T08:15:32;18.92;;;8.32;;
23826;SDS011;12094;50.822;4.376;2022-12-18T08:18:00;19.67;;;8.82;;
23826;SDS011;12094;50.822;4.376;2022-12-18T08:20:27;14.95;;;7.75;;
23826;SDS011;12094;50.822;4.376;2022-12-18T08:22:55;17.63;;;8.57;;
23826;SDS011;12094;50.822;4.376;2022-12-18T08:25:24;18.63;;;9.43;;
23826;SDS011;12094;50.822;4.376;2022-12-18T08:27:53;21.05;;;8.15;;
23826;SDS011;12094;50.822;4.376;2022-12-18T08:30:23;19.85;;;8.23;;
23826;SDS011;12094;50.822;4.376;2022-12-18T08:32:52;16.83;;;8.50;;
23826;SDS011;12094;50.822;4.376;2022-12-18T08:35:20;17.75;;;8.70;;
23826;SDS011;12094;50.822;4.376;2022-12-18T08:37:48;19.48;;;9.10;;
23826;SDS011;12094;50.822;4.376;2022-12-18T08:40:17;16.67;;;8.25;;
23826;SDS011;12094;50.822;4.376;2022-12-18T08:42:47;22.45;;;9.70;;
23826;SDS011;12094;50.822;4.376;2022-12-18T08:48:34;21.42;;;8.25;;
23826;SDS011;12094;50.822;4.376;2022-12-18T08:51:02;18.30;;;9.23;;
23826;SDS011;12094;50.822;4.376;2022-12-18T08:53:31;17.65;;;8.80;;
23826;SDS011;12094;50.822;4.376;2022-12-18T08:56:02;18.48;;;9.18;;
23826;SDS011;12094;50.822;4.376;2022-12-18T08:58:30;22.58;;;9.95;;
23826;SDS011;12094;50.822;4.376;2022-12-18T09:01:00;20.10;;;9.35;;
23826;SDS011;12094;50.822;4.376;2022-12-18T09:06:29;19.90;;;9.25;;
23826;SDS011;12094;50.822;4.376;2022-12-18T09:11:24;20.85;;;8.73;;
23826;SDS011;12094;50.822;4.376;2022-12-18T09:13:59;20.25;;;9.38;;
23826;SDS011;12094;50.822;4.376;2022-12-18T09:19:02;25.83;;;10.38;;
23826;SDS011;12094;50.822;4.376;2022-12-18T09:21:32;21.73;;;10.20;;
23826;SDS011;12094;50.822;4.376;2022-12-18T09:24:04;17.50;;;8.13;;
23826;SDS011;12094;50.822;4.376;2022-12-18T09:29:05;20.88;;;10.10;;
23826;SDS011;12094;50.822;4.376;2022-12-18T09:31:36;21.98;;;10.55;;
23826;SDS011;12094;50.822;4.376;2022-12-18T09:34:05;24.77;;;10.73;;
23826;SDS011;12094;50.822;4.376;2022-12-18T09:39:05;23.58;;;11.27;;
23826;SDS011;12094;50.822;4.376;2022-12-18T09:44:17;22.20;;;10.90;;
23826;SDS011;12094;50.822;4.376;2022-12-18T09:46:51;29.67;;;10.70;;
23826;SDS011;12094;50.822;4.376;2022-12-18T09:49:29;19.98;;;10.95;;
23826;SDS011;12094;50.822;4.376;2022-12-18T09:54:46;23.10;;;11.45;;
23826;SDS011;12094;50.822;4.376;2022-12-18T09:57:35;24.77;;;11.68;;
23826;SDS011;12094;50.822;4.376;2022-12-18T10:02:45;21.98;;;11.25;;
23826;SDS011;12094;50.822;4.376;2022-12-18T10:05:20;22.65;;;11.25;;
23826;SDS011;12094;50.822;4.376;2022-12-18T10:08:09;28.48;;;12.77;;
23826;SDS011;12094;50.822;4.376;2022-12-18T10:10:50;23.27;;;11.93;;
23826;SDS011;12094;50.822;4.376;2022-12-18T10:24:32;28.10;;;12.90;;
23826;SDS011;12094;50.822;4.376;2022-12-18T10:27:18;32.67;;;13.85;;
23826;SDS011;12094;50.822;4.376;2022-12-18T10:29:51;27.63;;;14.45;;
23826;SDS011;12094;50.822;4.376;2022-12-18T10:32:25;32.15;;;14.73;;
23826;SDS011;12094;50.822;4.376;2022-12-18T10:34:58;26.23;;;12.95;;
23826;SDS011;12094;50.822;4.376;2022-12-18T10:37:27;23.77;;;12.80;;
23826;SDS011;12094;50.822;4.376;2022-12-18T10:40:14;26.48;;;13.27;;
23826;SDS011;12094;50.822;4.376;2022-12-18T10:43:10;26.60;;;13.38;;
23826;SDS011;12094;50.822;4.376;2022-12-18T10:45:55;28.92;;;14.55;;
23826;SDS011;12094;50.822;4.376;2022-12-18T10:48:31;27.35;;;13.73;;
23826;SDS011;12094;50.822;4.376;2022-12-18T10:51:05;33.33;;;14.05;;
23826;SDS011;12094;50.822;4.376;2022-12-18T10:53:40;22.00;;;11.52;;
23826;SDS011;12094;50.822;4.376;2022-12-18T10:56:12;29.60;;;13.38;;
23826;SDS011;12094;50.822;4.376;2022-12-18T10:58:40;26.45;;;13.60;;
23826;SDS011;12094;50.822;4.376;2022-12-18T11:01:17;29.55;;;13.32;;
23826;SDS011;12094;50.822;4.376;2022-12-18T11:06:29;26.50;;;12.98;;
23826;SDS011;12094;50.822;4.376;2022-12-18T11:08:58;27.17;;;12.85;;
23826;SDS011;12094;50.822;4.376;2022-12-18T11:11:48;22.70;;;11.85;;
23826;SDS011;12094;50.822;4.376;2022-12-18T11:17:30;21.60;;;11.18;;
23826;SDS011;12094;50.822;4.376;2022-12-18T11:20:02;23.17;;;11.55;;
23826;SDS011;12094;50.822;4.376;2022-12-18T11:22:56;20.80;;;11.20;;
23826;SDS011;12094;50.822;4.376;2022-12-18T11:25:30;22.88;;;11.80;;
23826;SDS011;12094;50.822;4.376;2022-12-18T11:28:02;21.55;;;11.35;;
23826;SDS011;12094;50.822;4.376;2022-12-18T11:30:35;23.73;;;11.25;;
23826;SDS011;12094;50.822;4.376;2022-12-18T11:33:19;21.80;;;10.27;;
23826;SDS011;12094;50.822;4.376;2022-12-18T11:35:53;25.52;;;11.35;;
23826;SDS011;12094;50.822;4.376;2022-12-18T11:38:37;27.60;;;11.23;;
23826;SDS011;12094;50.822;4.376;2022-12-18T11:44:25;21.23;;;10.68;;
23826;SDS011;12094;50.822;4.376;2022-12-18T11:47:03;25.95;;;11.85;;
23826;SDS011;12094;50.822;4.376;2022-12-18T11:49:42;25.48;;;12.52;;
23826;SDS011;12094;50.822;4.376;2022-12-18T12:16:57;25.55;;;12.20;;
23826;SDS011;12094;50.822;4.376;2022-12-18T12:23:22;27.38;;;13.65;;
23826;SDS011;12094;50.822;4.376;2022-12-18T12:26:16;30.35;;;12.63;;
23826;SDS011;12094;50.822;4.376;2022-12-18T12:31:56;25.88;;;13.82;;
23826;SDS011;12094;50.822;4.376;2022-12-18T12:40:19;25.80;;;12.05;;
23826;SDS011;12094;50.822;4.376;2022-12-18T12:43:19;28.30;;;12.55;;
23826;SDS011;12094;50.822;4.376;2022-12-18T12:45:59;30.30;;;13.77;;
23826;SDS011;12094;50.822;4.376;2022-12-18T12:48:47;33.70;;;14.20;;
23826;SDS011;12094;50.822;4.376;2022-12-18T12:51:29;28.02;;;13.23;;
23826;SDS011;12094;50.822;4.376;2022-12-18T12:54:02;28.88;;;13.75;;
23826;SDS011;12094;50.822;4.376;2022-12-18T12:56:58;18.23;;;8.75;;
23826;SDS011;12094;50.822;4.376;2022-12-18T13:05:34;34.60;;;16.48;;
23826;SDS011;12094;50.822;4.376;2022-12-18T13:08:26;37.90;;;16.23;;
23826;SDS011;12094;50.822;4.376;2022-12-18T13:10:58;30.40;;;15.35;;
23826;SDS011;12094;50.822;4.376;2022-12-18T13:13:49;31.15;;;15.27;;
23826;SDS011;12094;50.822;4.376;2022-12-18T13:16:21;34.25;;;16.00;;
23826;SDS011;12094;50.822;4.376;2022-12-18T13:19:18;37.17;;;15.63;;
23826;SDS011;12094;50.822;4.376;2022-12-18T13:21:52;31.02;;;13.05;;
23826;SDS011;12094;50.822;4.376;2022-12-18T13:24:38;35.65;;;16.25;;
23826;SDS011;12094;50.822;4.376;2022-12-18T13:30:45;40.08;;;17.30;;
23826;SDS011;12094;50.822;4.376;2022-12-18T13:43:55;37.10;;;17.33;;
23826;SDS011;12094;50.822;4.376;2022-12-18T13:46:45;33.90;;;17.30;;
23826;SDS011;12094;50.822;4.376;2022-12-18T13:52:22;39.17;;;16.58;;
23826;SDS011;12094;50.822;4.376;2022-12-18T13:55:01;42.65;;;18.40;;
23826;SDS011;12094;50.822;4.376;2022-12-18T13:57:34;37.17;;;17.50;;
23826;SDS011;12094;50.822;4.376;2022-12-18T14:00:25;38.88;;;18.40;;
23826;SDS011;12094;50.822;4.376;2022-12-18T14:02:56;37.08;;;15.20;;
23826;SDS011;12094;50.822;4.376;2022-12-18T14:05:33;25.92;;;11.27;;
23826;SDS011;12094;50.822;4.376;2022-12-18T14:08:13;34.20;;;16.75;;
23826;SDS011;12094;50.822;4.376;2022-12-18T14:10:44;39.90;;;19.23;;
23826;SDS011;12094;50.822;4.376;2022-12-18T14:13:18;40.70;;;18.88;;
23826;SDS011;12094;50.822;4.376;2022-12-18T14:15:53;38.78;;;17.80;;
23826;SDS011;12094;50.822;4.376;2022-12-18T14:21:02;44.20;;;19.65;;
23826;SDS011;12094;50.822;4.376;2022-12-18T14:23:33;41.28;;;19.05;;
23826;SDS011;12094;50.822;4.376;2022-12-18T14:26:29;44.80;;;19.40;;
23826;SDS011;12094;50.822;4.376;2022-12-18T14:34:49;42.95;;;19.02;;
23826;SDS011;12094;50.822;4.376;2022-12-18T14:37:28;44.05;;;18.65;;
23826;SDS011;12094;50.822;4.376;2022-12-18T14:40:01;48.85;;;20.33;;
23826;SDS011;12094;50.822;4.376;2022-12-18T14:42:36;45.65;;;20.85;;
23826;SDS011;12094;50.822;4.376;2022-12-18T14:51:03;47.90;;;18.17;;
23826;SDS011;12094;50.822;4.376;2022-12-18T14:53:46;43.97;;;19.63;;
23826;SDS011;12094;50.822;4.376;2022-12-18T14:56:24;48.20;;;20.08;;
23826;SDS011;12094;50.822;4.376;2022-12-18T14:59:00;49.25;;;21.27;;
23826;SDS011;12094;50.822;4.376;2022-12-18T15:01:36;45.35;;;20.15;;
23826;SDS011;12094;50.822;4.376;2022-12-18T15:04:22;45.35;;;20.17;;
23826;SDS011;12094;50.822;4.376;2022-12-18T15:07:04;47.83;;;21.35;;
23826;SDS011;12094;50.822;4.376;2022-12-18T15:09:36;43.33;;;18.65;;
23826;SDS011;12094;50.822;4.376;2022-12-18T15:16:05;44.05;;;18.70;;
23826;SDS011;12094;50.822;4.376;2022-12-18T15:20:50;50.10;;;21.38;;
23826;SDS011;12094;50.822;4.376;2022-12-18T15:23:21;39.70;;;17.08;;
23826;SDS011;12094;50.822;4.376;2022-12-18T15:26:06;42.97;;;18.55;;
23826;SDS011;12094;50.822;4.376;2022-12-18T15:28:38;32.40;;;13.85;;
23826;SDS011;12094;50.822;4.376;2022-12-18T15:36:20;46.67;;;18.30;;
23826;SDS011;12094;50.822;4.376;2022-12-18T15:38:53;44.72;;;19.30;;
23826;SDS011;12094;50.822;4.376;2022-12-18T15:41:33;41.33;;;17.23;;
23826;SDS011;12094;50.822;4.376;2022-12-18T15:44:21;45.55;;;18.77;;
23826;SDS011;12094;50.822;4.376;2022-12-18T15:46:50;43.67;;;18.60;;
23826;SDS011;12094;50.822;4.376;2022-12-18T15:49:16;31.08;;;12.95;;
23826;SDS011;12094;50.822;4.376;2022-12-18T15:51:44;47.47;;;19.23;;
23826;SDS011;12094;50.822;4.376;2022-12-18T15:54:13;40.58;;;18.63;;
23826;SDS011;12094;50.822;4.376;2022-12-18T15:56:42;41.88;;;18.23;;
23826;SDS011;12094;50.822;4.376;2022-12-18T15:59:28;44.70;;;19.05;;
23826;SDS011;12094;50.822;4.376;2022-12-18T16:01:56;38.67;;;15.25;;
23826;SDS011;12094;50.822;4.376;2022-12-18T16:04:25;41.95;;;17.27;;
23826;SDS011;12094;50.822;4.376;2022-12-18T16:06:52;45.85;;;18.63;;
23826;SDS011;12094;50.822;4.376;2022-12-18T16:09:41;42.00;;;15.75;;
23826;SDS011;12094;50.822;4.376;2022-12-18T16:12:15;43.70;;;18.55;;
23826;SDS011;12094;50.822;4.376;2022-12-18T16:14:46;39.63;;;16.17;;
23826;SDS011;12094;50.822;4.376;2022-12-18T16:17:14;40.22;;;17.13;;
23826;SDS011;12094;50.822;4.376;2022-12-18T16:19:42;46.78;;;17.30;;
23826;SDS011;12094;50.822;4.376;2022-12-18T16:22:18;41.67;;;18.08;;
23826;SDS011;12094;50.822;4.376;2022-12-18T16:24:59;32.45;;;14.80;;
23826;SDS011;12094;50.822;4.376;2022-12-18T16:27:27;39.15;;;15.48;;
23826;SDS011;12094;50.822;4.376;2022-12-18T16:29:54;40.15;;;16.83;;
23826;SDS011;12094;50.822;4.376;2022-12-18T16:32:22;37.63;;;15.02;;
23826;SDS011;12094;50.822;4.376;2022-12-18T16:34:51;40.65;;;17.40;;
23826;SDS011;12094;50.822;4.376;2022-12-18T16:37:19;41.50;;;18.20;;
23826;SDS011;12094;50.822;4.376;2022-12-18T16:39:46;40.55;;;17.75;;
23826;SDS011;12094;50.822;4.376;2022-12-18T16:42:16;38.80;;;17.00;;
23826;SDS011;12094;50.822;4.376;2022-12-18T16:44:46;37.55;;;17.02;;
23826;SDS011;12094;50.822;4.376;2022-12-18T16:47:15;42.00;;;16.98;;
23826;SDS011;12094;50.822;4.376;2022-12-18T16:49:44;43.00;;;18.02;;
23826;SDS011;12094;50.822;4.376;2022-12-18T16:52:11;40.25;;;16.23;;
23826;SDS011;12094;50.822;4.376;2022-12-18T16:54:41;43.67;;;18.08;;
23826;SDS011;12094;50.822;4.376;2022-12-18T16:57:09;42.92;;;18.50;;
23826;SDS011;12094;50.822;4.376;2022-12-18T16:59:45;39.47;;;18.15;;
23826;SDS011;12094;50.822;4.376;2022-12-18T17:02:21;39.53;;;15.68;;
23826;SDS011;12094;50.822;4.376;2022-12-18T17:04:57;38.10;;;16.58;;
23826;SDS011;12094;50.822;4.376;2022-12-18T17:07:26;36.20;;;13.25;;
23826;SDS011;12094;50.822;4.376;2022-12-18T17:09:56;36.97;;;13.15;;
23826;SDS011;12094;50.822;4.376;2022-12-18T17:14:54;40.40;;;16.65;;
23826;SDS011;12094;50.822;4.376;2022-12-18T17:17:24;42.42;;;17.23;;
23826;SDS011;12094;50.822;4.376;2022-12-18T17:19:51;37.38;;;16.63;;
23826;SDS011;12094;50.822;4.376;2022-12-18T17:22:18;37.80;;;15.38;;
23826;SDS011;12094;50.822;4.376;2022-12-18T17:24:46;31.00;;;11.57;;
23826;SDS011;12094;50.822;4.376;2022-12-18T17:27:16;36.47;;;16.13;;
23826;SDS011;12094;50.822;4.376;2022-12-18T17:29:44;32.15;;;12.45;;
23826;SDS011;12094;50.822;4.376;2022-12-18T17:34:50;23.48;;;10.00;;
23826;SDS011;12094;50.822;4.376;2022-12-18T17:37:21;39.10;;;16.60;;
23826;SDS011;12094;50.822;4.376;2022-12-18T17:39:53;33.53;;;13.85;;
23826;SDS011;12094;50.822;4.376;2022-12-18T17:42:26;24.40;;;8.63;;
23826;SDS011;12094;50.822;4.376;2022-12-18T17:44:54;29.95;;;11.15;;
23826;SDS011;12094;50.822;4.376;2022-12-18T17:47:22;38.75;;;15.82;;
23826;SDS011;12094;50.822;4.376;2022-12-18T17:49:53;37.78;;;16.35;;
23826;SDS011;12094;50.822;4.376;2022-12-18T17:52:21;45.85;;;18.30;;
23826;SDS011;12094;50.822;4.376;2022-12-18T17:54:49;32.83;;;14.00;;
23826;SDS011;12094;50.822;4.376;2022-12-18T17:59:51;42.83;;;16.80;;
23826;SDS011;12094;50.822;4.376;2022-12-18T18:02:24;39.80;;;16.70;;
23826;SDS011;12094;50.822;4.376;2022-12-18T18:04:52;39.90;;;17.05;;
23826;SDS011;12094;50.822;4.376;2022-12-18T18:07:18;42.65;;;16.52;;
23826;SDS011;12094;50.822;4.376;2022-12-18T18:09:47;41.22;;;17.17;;
23826;SDS011;12094;50.822;4.376;2022-12-18T18:12:14;38.03;;;15.05;;
23826;SDS011;12094;50.822;4.376;2022-12-18T18:20:26;42.58;;;17.58;;
23826;SDS011;12094;50.822;4.376;2022-12-18T18:22:57;36.15;;;16.52;;
23826;SDS011;12094;50.822;4.376;2022-12-18T18:25:34;44.38;;;19.15;;
23826;SDS011;12094;50.822;4.376;2022-12-18T18:31:51;37.38;;;13.93;;
23826;SDS011;12094;50.822;4.376;2022-12-18T18:34:24;28.95;;;13.02;;
23826;SDS011;12094;50.822;4.376;2022-12-18T18:36:57;42.00;;;18.65;;
23826;SDS011;12094;50.822;4.376;2022-12-18T18:39:26;38.43;;;15.40;;